createdAt,value
2023-07-18T00:01:17.254Z,73.73
2023-07-18T00:03:45.349Z,73.72
2023-07-18T00:06:13.098Z,73.97
2023-07-18T00:08:42.442Z,73.40
2023-07-18T00:11:10.185Z,73.52
2023-07-18T00:13:37.954Z,73.28
2023-07-18T00:16:06.086Z,73.35
2023-07-18T00:18:34.207Z,73.29
2023-07-18T00:21:02.946Z,73.08
2023-07-18T00:23:31.569Z,73.17
2023-07-18T00:26:00.672Z,73.68
2023-07-18T00:28:29.570Z,73.48
2023-07-18T00:30:57.446Z,73.67
2023-07-18T00:33:25.182Z,73.39
2023-07-18T00:35:53.389Z,73.64
2023-07-18T00:38:21.621Z,73.86
2023-07-18T00:40:50.184Z,73.50
2023-07-18T00:43:20.856Z,73.81
2023-07-18T00:45:50.382Z,73.48
2023-07-18T00:48:18.558Z,73.99
2023-07-18T00:50:46.283Z,73.38
2023-07-18T00:53:14.298Z,73.75
2023-07-18T00:55:42.710Z,73.88
2023-07-18T00:58:10.863Z,73.83
2023-07-18T01:00:42.611Z,73.64
2023-07-18T01:03:10.362Z,73.85
2023-07-18T01:05:40.200Z,73.70
2023-07-18T01:08:07.991Z,73.86
2023-07-18T01:10:36.005Z,73.83
2023-07-18T01:13:03.854Z,74.06
2023-07-18T01:15:35.845Z,73.89
2023-07-18T01:18:08.329Z,73.96
2023-07-18T01:20:37.272Z,74.28
2023-07-18T01:23:06.936Z,74.15
2023-07-18T01:25:35.694Z,74.26
2023-07-18T01:28:04.259Z,74.17
2023-07-18T01:30:32.486Z,74.09
2023-07-18T01:33:00.678Z,74.41
2023-07-18T01:35:29.660Z,73.96
2023-07-18T01:37:58.528Z,74.40
2023-07-18T01:40:28.026Z,73.95
2023-07-18T01:42:56.733Z,74.06
2023-07-18T01:45:25.573Z,74.12
2023-07-18T01:47:53.766Z,74.52
2023-07-18T01:50:22.140Z,74.02
2023-07-18T01:52:50.051Z,74.31
2023-07-18T01:55:18.133Z,74.60
2023-07-18T01:57:48.481Z,74.53
2023-07-18T02:00:21.917Z,74.83
2023-07-18T02:02:52.453Z,75.12
2023-07-18T02:05:22.734Z,74.95
2023-07-18T02:07:50.644Z,74.71
2023-07-18T02:10:20.761Z,75.07
2023-07-18T02:12:50.631Z,74.84
2023-07-18T02:15:18.534Z,75.53
2023-07-18T02:17:46.811Z,75.18
2023-07-18T02:20:15.578Z,74.90
2023-07-18T02:22:45.928Z,74.73
2023-07-18T02:25:16.278Z,75.00
2023-07-18T02:27:44.137Z,74.83
2023-07-18T02:30:14.209Z,75.28
2023-07-18T02:32:43.374Z,74.71
2023-07-18T02:35:12.616Z,75.24
2023-07-18T02:37:40.482Z,74.94
2023-07-18T02:40:11.000Z,75.46
2023-07-18T02:42:40.326Z,75.31
2023-07-18T02:45:10.929Z,75.04
2023-07-18T02:47:41.495Z,75.00
2023-07-18T02:50:12.082Z,75.07
2023-07-18T02:52:40.398Z,75.30
2023-07-18T02:55:09.324Z,75.16
2023-07-18T02:57:37.616Z,75.24
2023-07-18T03:00:18.872Z,75.45
2023-07-18T03:02:49.461Z,74.87
2023-07-18T03:05:18.126Z,75.32
2023-07-18T03:07:47.546Z,74.82
2023-07-18T03:10:15.775Z,75.00
2023-07-18T03:12:43.571Z,75.00
2023-07-18T03:15:12.137Z,75.09
2023-07-18T03:17:39.935Z,75.38
2023-07-18T03:20:17.793Z,75.24
2023-07-18T03:22:46.234Z,75.37
2023-07-18T03:25:14.445Z,75.84
2023-07-18T03:27:42.317Z,75.44
2023-07-18T03:30:11.886Z,75.28
2023-07-18T03:32:41.044Z,75.18
2023-07-18T03:35:12.070Z,75.54
2023-07-18T03:37:39.990Z,75.17
2023-07-18T03:40:13.732Z,74.96
2023-07-18T03:42:43.412Z,75.15
2023-07-18T03:45:14.239Z,74.86
2023-07-18T03:47:45.442Z,75.17
2023-07-18T03:50:17.848Z,74.65
2023-07-18T03:52:46.141Z,74.66
2023-07-18T03:55:14.029Z,74.62
2023-07-18T03:57:45.714Z,75.52
2023-07-18T04:00:19.239Z,75.01
2023-07-18T04:02:50.548Z,74.87
2023-07-18T04:05:20.453Z,74.58
2023-07-18T04:07:49.078Z,74.93
2023-07-18T04:10:18.829Z,75.38
2023-07-18T04:12:46.791Z,74.70
2023-07-18T04:15:15.881Z,74.93
2023-07-18T04:17:46.502Z,74.68
2023-07-18T04:20:15.117Z,74.65
2023-07-18T04:22:44.283Z,75.17
2023-07-18T04:25:12.364Z,75.31
2023-07-18T04:27:40.138Z,75.10
2023-07-18T04:30:09.495Z,75.03
2023-07-18T04:32:37.263Z,75.16
2023-07-18T04:35:07.271Z,74.51
2023-07-18T04:37:35.175Z,74.37
2023-07-18T04:40:07.003Z,74.22
2023-07-18T04:42:37.156Z,74.42
2023-07-18T04:45:07.208Z,74.04
2023-07-18T04:47:35.128Z,73.86
2023-07-18T04:50:02.942Z,74.46
2023-07-18T04:52:30.687Z,73.45
2023-07-18T04:54:58.380Z,73.67
2023-07-18T04:57:30.387Z,73.74
2023-07-18T04:59:58.098Z,74.13
2023-07-18T05:02:25.886Z,73.61
2023-07-18T05:04:53.646Z,74.18
2023-07-18T05:07:21.335Z,73.55
2023-07-18T05:09:49.059Z,73.97
2023-07-18T05:12:16.819Z,73.79
2023-07-18T05:14:45.956Z,74.27
2023-07-18T05:17:13.657Z,73.81
2023-07-18T05:19:41.423Z,73.36
2023-07-18T05:22:09.182Z,73.96
2023-07-18T05:24:37.390Z,73.80
2023-07-18T05:27:05.351Z,73.45
2023-07-18T05:29:33.047Z,73.29
2023-07-18T05:32:02.318Z,73.22
2023-07-18T05:34:30.638Z,73.07
2023-07-18T05:36:58.441Z,73.64
2023-07-18T05:39:26.145Z,73.70
2023-07-18T05:41:53.864Z,73.12
2023-07-18T05:44:21.561Z,72.86
2023-07-18T05:46:49.304Z,72.71
2023-07-18T05:49:18.402Z,72.58
2023-07-18T05:51:46.287Z,72.92
2023-07-18T05:54:13.970Z,72.32
2023-07-18T05:56:42.850Z,72.29
2023-07-18T05:59:10.573Z,72.72
2023-07-18T06:01:38.350Z,72.22
2023-07-18T06:04:06.171Z,72.25
2023-07-18T06:06:35.793Z,71.65
2023-07-18T06:09:03.796Z,71.47
2023-07-18T06:11:31.645Z,71.42
2023-07-18T06:14:00.983Z,71.01
2023-07-18T06:16:29.475Z,70.93
2023-07-18T06:18:57.343Z,70.69
2023-07-18T06:21:28.449Z,70.40
2023-07-18T06:24:08.431Z,70.23
2023-07-18T06:26:49.839Z,70.29
2023-07-18T06:29:18.235Z,69.93
2023-07-18T06:31:46.029Z,70.11
2023-07-18T06:34:13.776Z,69.71
2023-07-18T06:36:41.574Z,69.20
2023-07-18T06:39:12.773Z,69.25
2023-07-18T06:41:40.470Z,69.38
2023-07-18T06:44:09.191Z,68.93
2023-07-18T06:46:37.382Z,68.90
2023-07-18T06:49:05.340Z,68.79
2023-07-18T06:51:33.327Z,68.80
2023-07-18T06:54:01.038Z,68.51
2023-07-18T06:56:30.116Z,68.20
2023-07-18T06:58:57.796Z,68.14
2023-07-18T07:01:28.182Z,67.83
2023-07-18T07:03:57.365Z,67.64
2023-07-18T07:06:25.303Z,67.46
2023-07-18T07:08:53.360Z,67.73
2023-07-18T07:11:21.529Z,67.12
2023-07-18T07:13:50.822Z,67.04
2023-07-18T07:16:18.600Z,67.08
2023-07-18T07:18:50.367Z,67.10
2023-07-18T07:21:18.324Z,67.23
2023-07-18T07:23:46.238Z,66.45
2023-07-18T07:26:13.975Z,65.92
2023-07-18T07:28:44.872Z,66.03
2023-07-18T07:31:16.001Z,65.73
2023-07-18T07:33:43.896Z,65.83
2023-07-18T07:36:11.645Z,65.98
2023-07-18T07:38:39.329Z,65.14
2023-07-18T07:41:07.328Z,64.89
2023-07-18T07:43:35.250Z,64.35
2023-07-18T07:46:03.505Z,64.20
2023-07-18T07:48:32.662Z,64.26
2023-07-18T07:51:01.043Z,63.83
2023-07-18T07:53:28.889Z,63.89
2023-07-18T07:55:56.904Z,60.12
2023-07-18T07:58:24.644Z,57.08
2023-07-18T08:00:52.712Z,55.37
2023-07-18T08:03:20.479Z,53.52
2023-07-18T08:05:49.763Z,52.31
2023-07-18T08:08:18.934Z,52.37
2023-07-18T08:10:46.716Z,52.06
2023-07-18T08:13:18.093Z,51.32
2023-07-18T08:15:46.112Z,50.19
2023-07-18T08:18:14.309Z,49.71
2023-07-18T08:20:42.092Z,48.99
2023-07-18T08:23:12.227Z,48.33
2023-07-18T08:25:40.019Z,47.77
2023-07-18T08:28:07.711Z,47.70
2023-07-18T08:30:35.419Z,48.09
2023-07-18T08:33:03.567Z,47.75
2023-07-18T08:35:34.372Z,47.17
2023-07-18T08:38:04.737Z,47.11
2023-07-18T08:40:34.442Z,47.25
2023-07-18T08:43:02.189Z,47.00
2023-07-18T08:45:40.512Z,45.56
2023-07-18T08:48:08.532Z,46.21
2023-07-18T08:50:37.968Z,45.20
2023-07-18T08:53:06.477Z,46.34
2023-07-18T08:55:39.126Z,45.54
2023-07-18T08:58:07.488Z,45.86
2023-07-18T09:00:35.257Z,45.38
2023-07-18T09:03:03.035Z,45.70
2023-07-18T09:05:33.832Z,45.27
2023-07-18T09:08:03.113Z,45.31
2023-07-18T09:10:31.231Z,44.48
2023-07-18T09:13:06.883Z,44.40
2023-07-18T09:15:35.453Z,45.37
2023-07-18T09:18:04.857Z,45.35
2023-07-18T09:20:33.464Z,45.27
2023-07-18T09:23:04.437Z,44.30
2023-07-18T09:25:32.695Z,44.22
2023-07-18T09:28:01.929Z,45.67
2023-07-18T09:30:31.305Z,45.88
2023-07-18T09:32:59.208Z,45.21
2023-07-18T09:35:29.032Z,44.77
2023-07-18T09:37:57.471Z,44.69
2023-07-18T09:40:25.249Z,44.68
2023-07-18T09:42:53.030Z,44.37
2023-07-18T09:45:22.989Z,43.62
2023-07-18T09:47:51.041Z,44.20
2023-07-18T09:50:18.817Z,44.03
2023-07-18T09:52:50.536Z,43.53
2023-07-18T09:55:23.192Z,43.91
2023-07-18T09:57:53.028Z,44.13
2023-07-18T10:00:22.179Z,43.88
2023-07-18T10:02:50.070Z,44.46
2023-07-18T10:05:18.006Z,44.10
2023-07-18T10:07:46.731Z,43.95
2023-07-18T10:10:14.680Z,43.64
2023-07-18T10:13:01.466Z,39.23
2023-07-18T10:15:31.652Z,42.49
2023-07-18T10:18:18.030Z,40.81
2023-07-18T10:20:58.862Z,40.86
2023-07-18T10:23:41.893Z,40.39
2023-07-18T10:26:10.371Z,42.43
2023-07-18T10:28:46.388Z,42.11
2023-07-18T10:31:34.817Z,41.11
2023-07-18T10:34:10.467Z,41.11
2023-07-18T10:36:38.730Z,42.70
2023-07-18T10:39:12.456Z,43.10
2023-07-18T10:41:44.068Z,41.96
2023-07-18T10:44:15.465Z,43.19
2023-07-18T10:46:45.209Z,43.46
2023-07-18T10:49:13.062Z,44.00
2023-07-18T10:51:40.790Z,43.89
2023-07-18T10:54:08.587Z,44.30
2023-07-18T10:56:36.320Z,44.27
2023-07-18T10:59:04.346Z,44.46
2023-07-18T11:01:32.195Z,43.95
2023-07-18T11:04:07.311Z,44.03
2023-07-18T11:06:35.341Z,44.68
2023-07-18T11:09:05.516Z,44.46
2023-07-18T11:11:33.524Z,43.89
2023-07-18T11:14:01.387Z,44.47
2023-07-18T11:16:29.264Z,44.68
2023-07-18T11:18:57.097Z,43.97
2023-07-18T11:21:26.300Z,43.93
2023-07-18T11:23:55.378Z,43.10
2023-07-18T11:26:23.114Z,42.69
2023-07-18T11:28:52.140Z,43.01
2023-07-18T11:33:56.633Z,42.98
2023-07-18T11:36:29.284Z,42.97
2023-07-18T11:38:59.198Z,42.45
2023-07-18T11:41:34.410Z,42.34
2023-07-18T11:44:03.504Z,42.77
2023-07-18T11:46:38.059Z,42.51
2023-07-18T11:49:05.972Z,42.93
2023-07-18T11:51:35.522Z,42.15
2023-07-18T11:54:04.452Z,42.37
2023-07-18T11:56:32.401Z,42.30
2023-07-18T11:59:00.192Z,41.97
2023-07-18T12:01:28.012Z,42.03
2023-07-18T12:03:56.323Z,41.89
2023-07-18T12:06:24.504Z,42.08
2023-07-18T12:08:54.008Z,41.88
2023-07-18T12:11:22.443Z,41.90
2023-07-18T12:13:50.189Z,41.05
2023-07-18T12:16:17.901Z,40.89
2023-07-18T12:18:45.654Z,41.05
2023-07-18T12:21:14.802Z,41.19
2023-07-18T12:23:43.526Z,41.01
2023-07-18T12:26:12.841Z,40.37
2023-07-18T12:28:40.550Z,40.47
2023-07-18T12:31:10.161Z,39.99
2023-07-18T12:33:39.504Z,39.72
2023-07-18T12:36:07.564Z,39.85
2023-07-18T12:38:35.347Z,39.55
2023-07-18T12:41:03.185Z,39.29
2023-07-18T12:43:32.411Z,39.32
2023-07-18T12:46:00.135Z,39.81
2023-07-18T12:48:28.008Z,39.66
2023-07-18T12:50:55.844Z,40.26
2023-07-18T12:53:23.587Z,40.29
2023-07-18T12:55:51.308Z,40.26
2023-07-18T12:58:19.086Z,40.30
2023-07-18T13:00:48.423Z,39.75
2023-07-18T13:03:16.192Z,39.74
2023-07-18T13:05:44.350Z,39.48
2023-07-18T13:08:12.138Z,39.45
2023-07-18T13:10:39.853Z,39.29
2023-07-18T13:13:08.391Z,39.59
2023-07-18T13:15:36.095Z,39.69
2023-07-18T13:18:05.288Z,39.40
2023-07-18T13:20:33.091Z,38.99
2023-07-18T13:23:00.889Z,38.97
2023-07-18T13:25:28.672Z,38.78
2023-07-18T13:27:56.470Z,38.05
2023-07-18T13:30:24.963Z,38.19
2023-07-18T13:32:52.776Z,38.26
2023-07-18T13:35:21.889Z,37.97
2023-07-18T13:37:49.624Z,38.51
2023-07-18T13:40:17.452Z,38.18
2023-07-18T13:42:45.233Z,37.91
2023-07-18T13:45:13.065Z,37.40
2023-07-18T13:47:40.859Z,37.93
2023-07-18T13:52:42.048Z,37.09
2023-07-18T13:55:10.502Z,37.12
2023-07-18T13:57:38.236Z,36.92
2023-07-18T14:00:07.201Z,37.05
2023-07-18T14:02:35.083Z,36.93
2023-07-18T14:05:03.113Z,36.83
2023-07-18T14:07:30.832Z,36.73
2023-07-18T14:09:59.897Z,36.38
2023-07-18T14:12:27.649Z,36.70
2023-07-18T14:14:55.466Z,35.96
2023-07-18T14:17:23.214Z,36.72
2023-07-18T14:19:50.958Z,36.62
2023-07-18T14:22:19.752Z,36.63
2023-07-18T14:24:48.546Z,36.13
2023-07-18T14:27:17.711Z,35.79
2023-07-18T14:29:45.432Z,36.01
2023-07-18T14:32:13.455Z,36.03
2023-07-18T14:34:41.371Z,36.22
2023-07-18T14:37:09.063Z,35.67
2023-07-18T14:39:39.296Z,36.27
2023-07-18T14:42:07.603Z,36.07
2023-07-18T14:44:37.958Z,35.24
2023-07-18T14:47:06.011Z,35.85
2023-07-18T14:49:33.721Z,35.94
2023-07-18T14:52:01.450Z,35.76
2023-07-18T14:54:29.139Z,35.68
2023-07-18T14:56:57.118Z,35.42
2023-07-18T14:59:24.935Z,35.82
2023-07-18T15:01:54.043Z,35.90
2023-07-18T15:04:21.941Z,35.73
2023-07-18T15:06:50.991Z,34.96
2023-07-18T15:09:21.735Z,35.60
2023-07-18T15:11:49.605Z,35.83
2023-07-18T15:14:17.796Z,35.57
2023-07-18T15:16:45.774Z,35.86
2023-07-18T15:19:14.883Z,36.36
2023-07-18T15:21:42.622Z,36.10
2023-07-18T15:24:10.394Z,36.05
2023-07-18T15:26:38.917Z,35.99
2023-07-18T15:29:06.656Z,36.05
2023-07-18T15:31:34.492Z,36.07
2023-07-18T15:34:02.244Z,35.91
2023-07-18T15:36:31.277Z,36.09
2023-07-18T15:38:58.968Z,36.34
2023-07-18T15:41:26.721Z,36.49
2023-07-18T15:43:55.142Z,36.61
2023-07-18T15:46:23.115Z,36.56
2023-07-18T15:48:51.105Z,36.52
2023-07-18T15:51:18.813Z,36.66
2023-07-18T15:53:47.994Z,36.94
2023-07-18T15:56:17.861Z,36.75
2023-07-18T15:58:45.822Z,36.89
2023-07-18T16:01:13.654Z,37.04
2023-07-18T16:03:41.459Z,36.67
2023-07-18T16:06:09.272Z,36.95
2023-07-18T16:08:36.997Z,36.78
2023-07-18T16:11:06.143Z,36.88
2023-07-18T16:13:33.868Z,36.94
2023-07-18T16:16:01.578Z,37.14
2023-07-18T16:18:29.297Z,37.13
2023-07-18T16:20:56.969Z,37.39
2023-07-18T16:23:24.722Z,36.88
2023-07-18T16:25:52.544Z,36.81
2023-07-18T16:28:21.712Z,37.17
2023-07-18T16:30:49.483Z,37.11
2023-07-18T16:33:17.325Z,37.19
2023-07-18T16:35:45.572Z,37.40
2023-07-18T16:38:13.330Z,37.33
2023-07-18T16:40:41.153Z,37.17
2023-07-18T16:43:08.953Z,37.09
2023-07-18T16:45:39.766Z,37.21
2023-07-18T16:48:07.664Z,37.42
2023-07-18T16:50:36.943Z,37.58
2023-07-18T16:53:05.298Z,37.45
2023-07-18T16:55:33.021Z,37.37
2023-07-18T16:58:00.740Z,37.40
2023-07-18T17:00:28.985Z,37.28
2023-07-18T17:02:58.164Z,37.09
2023-07-18T17:05:26.056Z,37.01
2023-07-18T17:07:53.779Z,37.37
2023-07-18T17:10:21.648Z,37.67
2023-07-18T17:12:49.366Z,37.77
2023-07-18T17:15:17.404Z,37.45
2023-07-18T17:17:45.174Z,37.46
2023-07-18T17:20:14.892Z,37.45
2023-07-18T17:22:42.781Z,37.58
2023-07-18T17:25:11.007Z,37.54
2023-07-18T17:27:38.864Z,37.62
2023-07-18T17:30:08.620Z,37.85
2023-07-18T17:32:36.368Z,37.58
2023-07-18T17:35:04.388Z,37.78
2023-07-18T17:37:33.555Z,37.84
2023-07-18T17:40:02.070Z,37.84
2023-07-18T17:42:30.294Z,37.98
2023-07-18T17:44:58.116Z,38.14
2023-07-18T17:47:26.014Z,38.27
2023-07-18T17:49:53.824Z,38.40
2023-07-18T17:52:21.566Z,38.24
2023-07-18T17:54:50.675Z,38.58
2023-07-18T17:57:18.403Z,38.68
2023-07-18T17:59:46.194Z,38.65
2023-07-18T18:02:14.147Z,38.96
2023-07-18T18:04:41.916Z,39.09
2023-07-18T18:07:11.112Z,39.25
2023-07-18T18:09:41.274Z,39.01
2023-07-18T18:12:10.568Z,39.12
2023-07-18T18:14:39.127Z,39.35
2023-07-18T18:17:07.549Z,39.55
2023-07-18T18:19:35.348Z,39.95
2023-07-18T18:22:03.219Z,40.09
2023-07-18T18:24:30.965Z,40.34
2023-07-18T18:26:58.703Z,40.43
2023-07-18T18:29:29.586Z,40.59
2023-07-18T18:31:57.340Z,40.83
2023-07-18T18:34:25.071Z,40.89
2023-07-18T18:36:52.785Z,41.22
2023-07-18T18:39:21.857Z,41.55
2023-07-18T18:41:49.634Z,41.56
2023-07-18T18:44:17.347Z,41.72
2023-07-18T18:46:46.633Z,42.02
2023-07-18T18:49:26.060Z,42.47
2023-07-18T18:51:55.303Z,42.30
2023-07-18T18:54:23.480Z,42.61
2023-07-18T18:56:53.226Z,42.92
2023-07-18T18:59:21.101Z,42.94
2023-07-18T19:01:51.352Z,43.52
2023-07-18T19:04:19.317Z,43.83
2023-07-18T19:06:47.080Z,44.34
2023-07-18T19:09:14.879Z,44.46
2023-07-18T19:11:42.587Z,44.75
2023-07-18T19:14:10.344Z,45.03
2023-07-18T19:16:40.091Z,45.35
2023-07-18T19:19:11.667Z,46.02
2023-07-18T19:21:39.406Z,46.08
2023-07-18T19:24:09.171Z,46.55
2023-07-18T19:26:36.961Z,46.97
2023-07-18T19:29:04.738Z,47.26
2023-07-18T19:31:32.565Z,47.54
2023-07-18T19:34:00.337Z,47.31
2023-07-18T19:36:29.489Z,47.80
2023-07-18T19:38:57.206Z,48.09
2023-07-18T19:41:25.271Z,48.95
2023-07-18T19:43:53.042Z,48.96
2023-07-18T19:46:20.812Z,48.93
2023-07-18T19:48:48.579Z,49.16
2023-07-18T19:51:16.350Z,49.49
2023-07-18T19:53:45.428Z,49.71
2023-07-18T19:56:13.739Z,49.93
2023-07-18T19:58:41.616Z,50.65
2023-07-18T20:01:09.514Z,50.75
2023-07-18T20:03:52.286Z,50.99
2023-07-18T20:06:24.846Z,51.13
2023-07-18T20:08:53.960Z,51.16
2023-07-18T20:11:22.118Z,51.59
2023-07-18T20:13:50.083Z,51.77
2023-07-18T20:16:19.059Z,52.07
2023-07-18T20:18:50.322Z,52.02
2023-07-18T20:21:19.798Z,52.51
2023-07-18T20:23:47.845Z,52.54
2023-07-18T20:26:16.952Z,52.67
2023-07-18T20:28:44.692Z,53.03
2023-07-18T20:31:12.627Z,52.99
2023-07-18T20:33:43.470Z,53.31
2023-07-18T20:36:11.460Z,53.31
2023-07-18T20:38:39.398Z,53.44
2023-07-18T20:41:09.788Z,53.88
2023-07-18T20:43:41.654Z,54.03
2023-07-18T20:46:12.139Z,54.19
2023-07-18T20:48:39.973Z,53.88
2023-07-18T20:51:08.155Z,54.20
2023-07-18T20:53:35.900Z,54.55
2023-07-18T20:56:03.667Z,54.98
2023-07-18T20:58:31.779Z,54.77
2023-07-18T21:01:01.657Z,54.75
2023-07-18T21:03:29.796Z,54.88
2023-07-18T21:05:57.650Z,55.04
2023-07-18T21:08:25.410Z,55.19
2023-07-18T21:10:53.136Z,55.06
2023-07-18T21:13:20.829Z,55.20
2023-07-18T21:15:48.574Z,55.58
2023-07-18T21:18:17.684Z,55.76
2023-07-18T21:20:45.447Z,55.87
2023-07-18T21:23:13.281Z,55.95
2023-07-18T21:25:41.236Z,56.28
2023-07-18T21:28:09.256Z,56.17
2023-07-18T21:30:36.976Z,56.17
2023-07-18T21:33:04.857Z,56.84
2023-07-18T21:35:33.987Z,56.61
2023-07-18T21:38:01.866Z,56.86
2023-07-18T21:40:29.753Z,57.03
2023-07-18T21:42:57.559Z,56.99
2023-07-18T21:45:25.397Z,57.00
2023-07-18T21:47:53.402Z,57.15
2023-07-18T21:50:21.394Z,57.07
2023-07-18T21:52:50.480Z,57.54
2023-07-18T21:55:18.365Z,57.33
2023-07-18T21:57:46.088Z,57.45
2023-07-18T22:00:15.623Z,57.72
2023-07-18T22:02:43.474Z,58.19
2023-07-18T22:05:11.290Z,58.18
2023-07-18T22:07:39.072Z,58.15
2023-07-18T22:10:09.969Z,58.06
2023-07-18T22:12:38.053Z,58.28
2023-07-18T22:15:06.842Z,58.39
2023-07-18T22:17:34.695Z,58.72
2023-07-18T22:20:02.702Z,58.74
2023-07-18T22:22:30.477Z,59.01
2023-07-18T22:24:58.606Z,58.87
2023-07-18T22:27:27.753Z,59.04
2023-07-18T22:29:55.511Z,58.79
2023-07-18T22:32:23.260Z,58.98
2023-07-18T22:34:51.027Z,59.09
2023-07-18T22:37:18.730Z,58.98
2023-07-18T22:39:48.929Z,59.11
2023-07-18T22:42:17.657Z,59.26
2023-07-18T22:44:47.818Z,59.34
2023-07-18T22:47:16.523Z,59.94
2023-07-18T22:49:44.543Z,59.54
2023-07-18T22:52:18.642Z,59.38
2023-07-18T22:54:47.251Z,59.81
2023-07-18T22:57:15.259Z,59.92
2023-07-18T22:59:43.053Z,59.67
2023-07-18T23:02:12.191Z,59.73
2023-07-18T23:04:40.147Z,59.64
2023-07-18T23:07:08.180Z,60.15
2023-07-18T23:09:35.994Z,60.11
2023-07-18T23:12:04.460Z,60.34
2023-07-18T23:14:32.454Z,60.27
2023-07-18T23:17:00.281Z,60.39
2023-07-18T23:19:29.534Z,60.29
2023-07-18T23:21:57.239Z,60.51
2023-07-18T23:24:24.932Z,60.33
2023-07-18T23:26:52.653Z,60.65
2023-07-18T23:29:20.403Z,60.28
2023-07-18T23:31:48.109Z,60.62
2023-07-18T23:34:15.830Z,60.52
2023-07-18T23:36:44.996Z,60.76
2023-07-18T23:43:00.624Z,60.69
2023-07-18T23:45:29.163Z,60.58
2023-07-18T23:47:56.940Z,60.89
2023-07-18T23:50:24.848Z,60.94
2023-07-18T23:52:57.654Z,61.07
2023-07-18T23:55:25.539Z,61.00
2023-07-18T23:57:53.362Z,61.15
